sensor_id;sensor_type;location;lat;lon;timestamp;temperature;humidity
68139;DHT22;54940;50.842;4.410;2022-10-10T00:00:23;10.90;99.90
68139;DHT22;54940;50.842;4.410;2022-10-10T00:02:48;10.90;99.90
68139;DHT22;54940;50.842;4.410;2022-10-10T00:05:14;10.90;99.90
68139;DHT22;54940;50.842;4.410;2022-10-10T00:07:40;10.80;99.90
68139;DHT22;54940;50.842;4.410;2022-10-10T00:10:06;10.80;99.90
68139;DHT22;54940;50.842;4.410;2022-10-10T00:12:31;10.80;99.90
68139;DHT22;54940;50.842;4.410;2022-10-10T00:14:57;10.80;99.90
68139;DHT22;54940;50.842;4.410;2022-10-10T00:17:23;10.90;99.90
68139;DHT22;54940;50.842;4.410;2022-10-10T00:19:49;10.80;99.90
68139;DHT22;54940;50.842;4.410;2022-10-10T00:22:14;10.90;99.90
68139;DHT22;54940;50.842;4.410;2022-10-10T00:24:40;10.80;99.90
68139;DHT22;54940;50.842;4.410;2022-10-10T00:27:06;10.80;99.90
68139;DHT22;54940;50.842;4.410;2022-10-10T00:29:31;10.90;99.90
68139;DHT22;54940;50.842;4.410;2022-10-10T00:31:57;10.80;99.90
68139;DHT22;54940;50.842;4.410;2022-10-10T00:34:22;10.80;99.90
68139;DHT22;54940;50.842;4.410;2022-10-10T00:36:48;10.80;99.90
68139;DHT22;54940;50.842;4.410;2022-10-10T00:39:14;10.80;99.90
68139;DHT22;54940;50.842;4.410;2022-10-10T00:41:39;10.80;99.90
68139;DHT22;54940;50.842;4.410;2022-10-10T00:44:10;10.80;99.90
68139;DHT22;54940;50.842;4.410;2022-10-10T00:46:36;10.70;99.90
68139;DHT22;54940;50.842;4.410;2022-10-10T00:49:05;10.80;99.90
68139;DHT22;54940;50.842;4.410;2022-10-10T00:51:33;10.80;99.90
68139;DHT22;54940;50.842;4.410;2022-10-10T00:54:05;10.90;99.90
68139;DHT22;54940;50.842;4.410;2022-10-10T00:56:36;10.90;99.90
68139;DHT22;54940;50.842;4.410;2022-10-10T00:59:04;10.90;99.90
68139;DHT22;54940;50.842;4.410;2022-10-10T01:01:30;10.90;99.90
68139;DHT22;54940;50.842;4.410;2022-10-10T01:03:57;10.80;99.90
68139;DHT22;54940;50.842;4.410;2022-10-10T01:06:23;10.80;99.90
68139;DHT22;54940;50.842;4.410;2022-10-10T01:08:49;10.70;99.90
68139;DHT22;54940;50.842;4.410;2022-10-10T01:14:00;10.80;99.90
68139;DHT22;54940;50.842;4.410;2022-10-10T01:25:31;10.80;99.90
68139;DHT22;54940;50.842;4.410;2022-10-10T01:28:00;10.90;99.90
68139;DHT22;54940;50.842;4.410;2022-10-10T01:30:28;10.80;99.90
68139;DHT22;54940;50.842;4.410;2022-10-10T01:33:09;10.90;99.90
68139;DHT22;54940;50.842;4.410;2022-10-10T01:35:59;11.00;99.90
68139;DHT22;54940;50.842;4.410;2022-10-10T01:38:38;11.00;99.90
68139;DHT22;54940;50.842;4.410;2022-10-10T01:41:18;11.00;99.90
68139;DHT22;54940;50.842;4.410;2022-10-10T01:43:55;11.00;99.90
68139;DHT22;54940;50.842;4.410;2022-10-10T01:46:20;11.00;99.90
68139;DHT22;54940;50.842;4.410;2022-10-10T01:48:48;11.00;99.90
68139;DHT22;54940;50.842;4.410;2022-10-10T01:56:24;11.00;99.90
68139;DHT22;54940;50.842;4.410;2022-10-10T02:04:25;11.10;99.90
68139;DHT22;54940;50.842;4.410;2022-10-10T02:07:08;11.10;99.90
68139;DHT22;54940;50.842;4.410;2022-10-10T02:09:37;11.10;99.90
68139;DHT22;54940;50.842;4.410;2022-10-10T02:12:05;11.10;99.90
68139;DHT22;54940;50.842;4.410;2022-10-10T02:14:36;11.10;99.90
68139;DHT22;54940;50.842;4.410;2022-10-10T02:17:07;11.00;99.90
68139;DHT22;54940;50.842;4.410;2022-10-10T02:19:35;11.10;99.90
68139;DHT22;54940;50.842;4.410;2022-10-10T02:22:01;11.00;99.90
68139;DHT22;54940;50.842;4.410;2022-10-10T02:24:27;10.90;99.90
68139;DHT22;54940;50.842;4.410;2022-10-10T02:27:48;11.00;99.90
68139;DHT22;54940;50.842;4.410;2022-10-10T02:29:46;11.00;99.90
68139;DHT22;54940;50.842;4.410;2022-10-10T02:32:29;10.90;99.90
68139;DHT22;54940;50.842;4.410;2022-10-10T02:34:59;11.00;99.90
68139;DHT22;54940;50.842;4.410;2022-10-10T02:37:28;10.90;99.90
68139;DHT22;54940;50.842;4.410;2022-10-10T02:39:58;10.90;99.90
68139;DHT22;54940;50.842;4.410;2022-10-10T02:42:26;10.90;99.90
68139;DHT22;54940;50.842;4.410;2022-10-10T02:44:53;11.00;99.90
68139;DHT22;54940;50.842;4.410;2022-10-10T02:47:19;11.00;99.90
68139;DHT22;54940;50.842;4.410;2022-10-10T02:49:44;10.90;99.90
68139;DHT22;54940;50.842;4.410;2022-10-10T02:52:13;10.90;99.90
68139;DHT22;54940;50.842;4.410;2022-10-10T02:54:39;10.90;99.90
68139;DHT22;54940;50.842;4.410;2022-10-10T02:57:05;10.90;99.90
68139;DHT22;54940;50.842;4.410;2022-10-10T02:59:31;10.90;99.90
68139;DHT22;54940;50.842;4.410;2022-10-10T03:01:57;10.90;99.90
68139;DHT22;54940;50.842;4.410;2022-10-10T03:04:23;10.90;99.90
68139;DHT22;54940;50.842;4.410;2022-10-10T03:06:48;10.80;99.90
68139;DHT22;54940;50.842;4.410;2022-10-10T03:09:14;10.80;99.90
68139;DHT22;54940;50.842;4.410;2022-10-10T03:11:39;11.00;99.90
68139;DHT22;54940;50.842;4.410;2022-10-10T03:14:05;11.00;99.90
68139;DHT22;54940;50.842;4.410;2022-10-10T03:16:31;11.00;99.90
68139;DHT22;54940;50.842;4.410;2022-10-10T03:18:57;11.00;99.90
68139;DHT22;54940;50.842;4.410;2022-10-10T03:21:23;11.00;99.90
68139;DHT22;54940;50.842;4.410;2022-10-10T03:23:48;11.00;99.90
68139;DHT22;54940;50.842;4.410;2022-10-10T03:26:14;11.00;99.90
68139;DHT22;54940;50.842;4.410;2022-10-10T03:28:39;11.00;99.90
68139;DHT22;54940;50.842;4.410;2022-10-10T03:31:05;11.00;99.90
68139;DHT22;54940;50.842;4.410;2022-10-10T03:33:31;11.10;99.90
68139;DHT22;54940;50.842;4.410;2022-10-10T03:35:56;11.00;99.90
68139;DHT22;54940;50.842;4.410;2022-10-10T03:38:22;11.00;99.90
68139;DHT22;54940;50.842;4.410;2022-10-10T03:40:47;11.00;99.90
68139;DHT22;54940;50.842;4.410;2022-10-10T03:43:14;10.90;99.90
68139;DHT22;54940;50.842;4.410;2022-10-10T03:45:44;10.90;99.90
68139;DHT22;54940;50.842;4.410;2022-10-10T03:48:10;10.90;99.90
68139;DHT22;54940;50.842;4.410;2022-10-10T03:50:36;10.90;99.90
68139;DHT22;54940;50.842;4.410;2022-10-10T03:53:02;10.80;99.90
68139;DHT22;54940;50.842;4.410;2022-10-10T03:55:28;10.90;99.90
68139;DHT22;54940;50.842;4.410;2022-10-10T03:57:53;10.90;99.90
68139;DHT22;54940;50.842;4.410;2022-10-10T04:00:19;10.90;99.90
68139;DHT22;54940;50.842;4.410;2022-10-10T04:02:45;10.90;99.90
68139;DHT22;54940;50.842;4.410;2022-10-10T04:05:11;10.90;99.90
68139;DHT22;54940;50.842;4.410;2022-10-10T04:07:36;10.90;99.90
68139;DHT22;54940;50.842;4.410;2022-10-10T04:10:02;10.90;99.90
68139;DHT22;54940;50.842;4.410;2022-10-10T04:12:28;10.90;99.90
68139;DHT22;54940;50.842;4.410;2022-10-10T04:14:54;11.00;99.90
68139;DHT22;54940;50.842;4.410;2022-10-10T04:17:19;10.90;99.90
68139;DHT22;54940;50.842;4.410;2022-10-10T04:19:45;10.90;99.90
68139;DHT22;54940;50.842;4.410;2022-10-10T04:22:11;10.90;99.90
68139;DHT22;54940;50.842;4.410;2022-10-10T04:24:36;10.90;99.90
68139;DHT22;54940;50.842;4.410;2022-10-10T04:27:02;10.90;99.90
68139;DHT22;54940;50.842;4.410;2022-10-10T04:29:28;10.90;99.90
68139;DHT22;54940;50.842;4.410;2022-10-10T04:31:53;10.80;99.90
68139;DHT22;54940;50.842;4.410;2022-10-10T04:34:19;10.80;99.90
68139;DHT22;54940;50.842;4.410;2022-10-10T04:36:45;10.80;99.90
68139;DHT22;54940;50.842;4.410;2022-10-10T04:39:10;10.80;99.90
68139;DHT22;54940;50.842;4.410;2022-10-10T04:41:36;10.90;99.90
68139;DHT22;54940;50.842;4.410;2022-10-10T04:44:02;10.90;99.90
68139;DHT22;54940;50.842;4.410;2022-10-10T04:46:27;11.00;99.90
68139;DHT22;54940;50.842;4.410;2022-10-10T04:48:53;11.00;99.90
68139;DHT22;54940;50.842;4.410;2022-10-10T04:51:18;11.00;99.90
68139;DHT22;54940;50.842;4.410;2022-10-10T04:53:44;11.00;99.90
68139;DHT22;54940;50.842;4.410;2022-10-10T04:56:09;11.10;99.90
68139;DHT22;54940;50.842;4.410;2022-10-10T04:58:35;11.00;99.90
68139;DHT22;54940;50.842;4.410;2022-10-10T05:01:01;11.00;99.90
68139;DHT22;54940;50.842;4.410;2022-10-10T05:03:26;11.00;99.90
68139;DHT22;54940;50.842;4.410;2022-10-10T05:05:52;11.00;99.90
68139;DHT22;54940;50.842;4.410;2022-10-10T05:08:18;11.10;99.90
68139;DHT22;54940;50.842;4.410;2022-10-10T05:10:45;11.00;99.90
68139;DHT22;54940;50.842;4.410;2022-10-10T05:13:12;11.00;99.90
68139;DHT22;54940;50.842;4.410;2022-10-10T05:15:39;11.00;99.90
68139;DHT22;54940;50.842;4.410;2022-10-10T05:18:04;11.00;99.90
68139;DHT22;54940;50.842;4.410;2022-10-10T05:20:31;11.00;99.90
68139;DHT22;54940;50.842;4.410;2022-10-10T05:22:57;11.00;99.90
68139;DHT22;54940;50.842;4.410;2022-10-10T05:25:23;11.00;99.90
68139;DHT22;54940;50.842;4.410;2022-10-10T05:27:49;11.00;99.90
68139;DHT22;54940;50.842;4.410;2022-10-10T05:30:14;10.90;99.90
68139;DHT22;54940;50.842;4.410;2022-10-10T05:32:40;11.00;99.90
68139;DHT22;54940;50.842;4.410;2022-10-10T05:35:06;11.00;99.90
68139;DHT22;54940;50.842;4.410;2022-10-10T05:37:32;11.00;99.90
68139;DHT22;54940;50.842;4.410;2022-10-10T05:39:58;11.00;99.90
68139;DHT22;54940;50.842;4.410;2022-10-10T05:42:24;11.00;99.90
68139;DHT22;54940;50.842;4.410;2022-10-10T05:44:49;11.00;99.90
68139;DHT22;54940;50.842;4.410;2022-10-10T05:47:15;10.90;99.90
68139;DHT22;54940;50.842;4.410;2022-10-10T05:49:41;10.90;99.90
68139;DHT22;54940;50.842;4.410;2022-10-10T05:52:07;10.80;99.90
68139;DHT22;54940;50.842;4.410;2022-10-10T05:54:33;10.90;99.90
68139;DHT22;54940;50.842;4.410;2022-10-10T05:56:58;10.90;99.90
68139;DHT22;54940;50.842;4.410;2022-10-10T05:59:24;10.80;99.90
68139;DHT22;54940;50.842;4.410;2022-10-10T06:01:50;10.80;99.90
68139;DHT22;54940;50.842;4.410;2022-10-10T06:04:16;10.80;99.90
68139;DHT22;54940;50.842;4.410;2022-10-10T06:06:41;10.80;99.90
68139;DHT22;54940;50.842;4.410;2022-10-10T06:09:07;10.80;99.90
68139;DHT22;54940;50.842;4.410;2022-10-10T06:11:33;10.80;99.90
68139;DHT22;54940;50.842;4.410;2022-10-10T06:13:58;10.80;99.90
68139;DHT22;54940;50.842;4.410;2022-10-10T06:16:25;10.80;99.90
68139;DHT22;54940;50.842;4.410;2022-10-10T06:18:51;10.80;99.90
68139;DHT22;54940;50.842;4.410;2022-10-10T06:21:17;10.90;99.90
68139;DHT22;54940;50.842;4.410;2022-10-10T06:23:44;10.90;99.90
68139;DHT22;54940;50.842;4.410;2022-10-10T06:26:10;10.90;99.90
68139;DHT22;54940;50.842;4.410;2022-10-10T06:28:36;10.90;99.90
68139;DHT22;54940;50.842;4.410;2022-10-10T06:31:04;11.00;99.90
68139;DHT22;54940;50.842;4.410;2022-10-10T06:33:30;11.00;99.90
68139;DHT22;54940;50.842;4.410;2022-10-10T06:35:57;10.90;99.90
68139;DHT22;54940;50.842;4.410;2022-10-10T06:38:22;10.90;99.90
68139;DHT22;54940;50.842;4.410;2022-10-10T06:40:48;11.00;99.90
68139;DHT22;54940;50.842;4.410;2022-10-10T06:43:15;11.10;99.90
68139;DHT22;54940;50.842;4.410;2022-10-10T06:45:44;11.10;99.90
68139;DHT22;54940;50.842;4.410;2022-10-10T06:48:11;11.20;99.90
68139;DHT22;54940;50.842;4.410;2022-10-10T06:50:37;11.20;99.90
68139;DHT22;54940;50.842;4.410;2022-10-10T06:53:04;11.20;99.90
68139;DHT22;54940;50.842;4.410;2022-10-10T06:55:29;11.30;99.90
68139;DHT22;54940;50.842;4.410;2022-10-10T06:57:56;11.30;99.90
68139;DHT22;54940;50.842;4.410;2022-10-10T07:00:21;11.40;99.90
68139;DHT22;54940;50.842;4.410;2022-10-10T07:02:47;11.50;99.90
68139;DHT22;54940;50.842;4.410;2022-10-10T07:05:14;11.60;99.90
68139;DHT22;54940;50.842;4.410;2022-10-10T07:07:41;11.60;99.90
68139;DHT22;54940;50.842;4.410;2022-10-10T07:10:09;11.70;99.90
68139;DHT22;54940;50.842;4.410;2022-10-10T07:12:34;11.80;99.90
68139;DHT22;54940;50.842;4.410;2022-10-10T07:15:00;11.80;99.90
68139;DHT22;54940;50.842;4.410;2022-10-10T07:17:26;11.80;99.90
68139;DHT22;54940;50.842;4.410;2022-10-10T07:19:51;11.90;99.90
68139;DHT22;54940;50.842;4.410;2022-10-10T07:22:17;11.90;99.90
68139;DHT22;54940;50.842;4.410;2022-10-10T07:24:43;11.90;99.90
68139;DHT22;54940;50.842;4.410;2022-10-10T07:27:08;11.90;99.90
68139;DHT22;54940;50.842;4.410;2022-10-10T07:29:34;12.00;99.90
68139;DHT22;54940;50.842;4.410;2022-10-10T07:32:00;12.10;99.90
68139;DHT22;54940;50.842;4.410;2022-10-10T07:34:25;12.10;99.90
68139;DHT22;54940;50.842;4.410;2022-10-10T07:36:51;12.20;99.90
68139;DHT22;54940;50.842;4.410;2022-10-10T07:39:20;12.20;99.90
68139;DHT22;54940;50.842;4.410;2022-10-10T07:41:46;12.30;99.90
68139;DHT22;54940;50.842;4.410;2022-10-10T07:44:12;12.40;99.90
68139;DHT22;54940;50.842;4.410;2022-10-10T07:46:38;12.40;99.90
68139;DHT22;54940;50.842;4.410;2022-10-10T07:49:03;12.40;99.90
68139;DHT22;54940;50.842;4.410;2022-10-10T07:51:29;12.50;99.90
68139;DHT22;54940;50.842;4.410;2022-10-10T07:53:55;12.60;99.90
68139;DHT22;54940;50.842;4.410;2022-10-10T07:56:20;12.60;99.90
68139;DHT22;54940;50.842;4.410;2022-10-10T07:58:46;12.70;99.90
68139;DHT22;54940;50.842;4.410;2022-10-10T08:01:12;12.80;99.90
68139;DHT22;54940;50.842;4.410;2022-10-10T08:03:39;12.90;99.90
68139;DHT22;54940;50.842;4.410;2022-10-10T08:06:10;13.00;99.90
68139;DHT22;54940;50.842;4.410;2022-10-10T08:08:37;13.10;99.90
68139;DHT22;54940;50.842;4.410;2022-10-10T08:11:07;13.30;99.90
68139;DHT22;54940;50.842;4.410;2022-10-10T08:13:34;13.30;99.90
68139;DHT22;54940;50.842;4.410;2022-10-10T08:16:00;13.50;99.90
68139;DHT22;54940;50.842;4.410;2022-10-10T08:18:25;13.40;99.90
68139;DHT22;54940;50.842;4.410;2022-10-10T08:21:06;13.50;99.90
68139;DHT22;54940;50.842;4.410;2022-10-10T08:23:33;13.50;99.90
68139;DHT22;54940;50.842;4.410;2022-10-10T08:26:00;13.60;99.90
68139;DHT22;54940;50.842;4.410;2022-10-10T08:28:26;13.60;99.90
68139;DHT22;54940;50.842;4.410;2022-10-10T08:30:52;13.60;99.90
68139;DHT22;54940;50.842;4.410;2022-10-10T08:33:17;13.80;99.90
68139;DHT22;54940;50.842;4.410;2022-10-10T08:35:43;13.90;99.90
68139;DHT22;54940;50.842;4.410;2022-10-10T08:38:09;14.10;99.90
68139;DHT22;54940;50.842;4.410;2022-10-10T08:40:43;14.20;99.90
68139;DHT22;54940;50.842;4.410;2022-10-10T08:43:18;14.30;99.90
68139;DHT22;54940;50.842;4.410;2022-10-10T08:45:46;14.50;99.90
68139;DHT22;54940;50.842;4.410;2022-10-10T08:48:15;14.70;99.90
68139;DHT22;54940;50.842;4.410;2022-10-10T08:50:56;14.80;99.90
68139;DHT22;54940;50.842;4.410;2022-10-10T08:53:27;14.90;99.90
68139;DHT22;54940;50.842;4.410;2022-10-10T08:55:56;15.00;99.90
68139;DHT22;54940;50.842;4.410;2022-10-10T08:58:33;15.10;99.90
68139;DHT22;54940;50.842;4.410;2022-10-10T09:01:14;15.20;99.90
68139;DHT22;54940;50.842;4.410;2022-10-10T09:03:53;15.40;99.90
68139;DHT22;54940;50.842;4.410;2022-10-10T09:15:23;15.60;99.90
68139;DHT22;54940;50.842;4.410;2022-10-10T09:23:35;15.70;99.90
68139;DHT22;54940;50.842;4.410;2022-10-10T09:26:14;15.80;99.90
68139;DHT22;54940;50.842;4.410;2022-10-10T09:29:10;15.70;99.90
68139;DHT22;54940;50.842;4.410;2022-10-10T09:31:47;15.80;99.90
68139;DHT22;54940;50.842;4.410;2022-10-10T09:34:19;15.70;99.90
68139;DHT22;54940;50.842;4.410;2022-10-10T09:36:48;15.60;99.90
68139;DHT22;54940;50.842;4.410;2022-10-10T09:39:44;15.70;99.90
68139;DHT22;54940;50.842;4.410;2022-10-10T09:42:20;15.70;99.90
68139;DHT22;54940;50.842;4.410;2022-10-10T09:44:47;15.80;99.90
68139;DHT22;54940;50.842;4.410;2022-10-10T09:47:14;15.70;99.90
68139;DHT22;54940;50.842;4.410;2022-10-10T09:49:41;15.80;99.90
68139;DHT22;54940;50.842;4.410;2022-10-10T09:52:21;15.80;99.90
68139;DHT22;54940;50.842;4.410;2022-10-10T09:54:47;15.90;99.90
68139;DHT22;54940;50.842;4.410;2022-10-10T09:57:15;15.90;99.90
68139;DHT22;54940;50.842;4.410;2022-10-10T09:59:43;15.90;99.90
68139;DHT22;54940;50.842;4.410;2022-10-10T10:02:16;15.80;99.90
68139;DHT22;54940;50.842;4.410;2022-10-10T10:04:42;15.90;99.90
68139;DHT22;54940;50.842;4.410;2022-10-10T10:07:18;15.90;99.90
68139;DHT22;54940;50.842;4.410;2022-10-10T10:09:52;16.00;99.90
68139;DHT22;54940;50.842;4.410;2022-10-10T10:12:23;16.10;99.90
68139;DHT22;54940;50.842;4.410;2022-10-10T10:14:51;16.30;99.90
68139;DHT22;54940;50.842;4.410;2022-10-10T10:17:23;16.40;99.90
68139;DHT22;54940;50.842;4.410;2022-10-10T10:19:49;16.60;99.90
68139;DHT22;54940;50.842;4.410;2022-10-10T10:24:50;16.90;99.90
68139;DHT22;54940;50.842;4.410;2022-10-10T10:27:17;17.00;99.90
68139;DHT22;54940;50.842;4.410;2022-10-10T10:29:57;17.10;99.90
68139;DHT22;54940;50.842;4.410;2022-10-10T10:35:26;17.20;99.90
68139;DHT22;54940;50.842;4.410;2022-10-10T10:40:31;17.50;99.90
68139;DHT22;54940;50.842;4.410;2022-10-10T10:48:55;18.30;99.90
68139;DHT22;54940;50.842;4.410;2022-10-10T11:00:17;19.30;99.90
68139;DHT22;54940;50.842;4.410;2022-10-10T11:03:09;19.30;99.90
68139;DHT22;54940;50.842;4.410;2022-10-10T11:11:10;19.20;99.90
68139;DHT22;54940;50.842;4.410;2022-10-10T11:13:58;19.00;99.90
68139;DHT22;54940;50.842;4.410;2022-10-10T11:16:40;19.00;99.90
68139;DHT22;54940;50.842;4.410;2022-10-10T11:21:47;18.90;99.90
68139;DHT22;54940;50.842;4.410;2022-10-10T11:27:00;18.90;99.90
68139;DHT22;54940;50.842;4.410;2022-10-10T11:29:30;18.90;99.90
68139;DHT22;54940;50.842;4.410;2022-10-10T11:32:29;18.90;99.90
68139;DHT22;54940;50.842;4.410;2022-10-10T11:38:04;18.80;99.90
68139;DHT22;54940;50.842;4.410;2022-10-10T11:40:32;18.70;99.90
68139;DHT22;54940;50.842;4.410;2022-10-10T11:43:03;18.70;99.90
68139;DHT22;54940;50.842;4.410;2022-10-10T11:45:35;18.60;99.90
68139;DHT22;54940;50.842;4.410;2022-10-10T11:48:19;18.50;99.90
68139;DHT22;54940;50.842;4.410;2022-10-10T11:50:53;18.40;99.90
68139;DHT22;54940;50.842;4.410;2022-10-10T11:53:29;18.30;99.90
68139;DHT22;54940;50.842;4.410;2022-10-10T11:58:44;18.30;99.90
68139;DHT22;54940;50.842;4.410;2022-10-10T12:03:52;18.20;99.90
68139;DHT22;54940;50.842;4.410;2022-10-10T12:06:20;18.10;99.90
68139;DHT22;54940;50.842;4.410;2022-10-10T12:09:17;18.00;99.90
68139;DHT22;54940;50.842;4.410;2022-10-10T12:11:59;17.90;99.90
68139;DHT22;54940;50.842;4.410;2022-10-10T12:14:28;17.90;99.90
68139;DHT22;54940;50.842;4.410;2022-10-10T12:16:56;17.90;99.90
68139;DHT22;54940;50.842;4.410;2022-10-10T12:19:24;18.00;99.90
68139;DHT22;54940;50.842;4.410;2022-10-10T12:21:56;18.00;99.90
68139;DHT22;54940;50.842;4.410;2022-10-10T12:24:28;18.10;99.90
68139;DHT22;54940;50.842;4.410;2022-10-10T12:37:31;18.00;99.90
68139;DHT22;54940;50.842;4.410;2022-10-10T12:42:38;18.00;99.90
68139;DHT22;54940;50.842;4.410;2022-10-10T12:47:57;18.20;99.90
68139;DHT22;54940;50.842;4.410;2022-10-10T12:50:35;18.00;99.90
68139;DHT22;54940;50.842;4.410;2022-10-10T12:53:22;18.10;99.90
68139;DHT22;54940;50.842;4.410;2022-10-10T12:55:52;18.20;99.90
68139;DHT22;54940;50.842;4.410;2022-10-10T12:58:23;18.20;99.90
68139;DHT22;54940;50.842;4.410;2022-10-10T13:00:51;18.20;99.90
68139;DHT22;54940;50.842;4.410;2022-10-10T13:06:04;18.10;99.90
68139;DHT22;54940;50.842;4.410;2022-10-10T13:08:33;18.20;99.90
68139;DHT22;54940;50.842;4.410;2022-10-10T13:13:28;18.30;99.90
68139;DHT22;54940;50.842;4.410;2022-10-10T13:15:56;18.30;99.90
68139;DHT22;54940;50.842;4.410;2022-10-10T13:18:40;18.30;99.90
68139;DHT22;54940;50.842;4.410;2022-10-10T13:21:08;18.30;99.90
68139;DHT22;54940;50.842;4.410;2022-10-10T13:23:40;18.30;99.90
68139;DHT22;54940;50.842;4.410;2022-10-10T13:26:14;18.30;99.90
68139;DHT22;54940;50.842;4.410;2022-10-10T13:28:43;18.30;99.90
68139;DHT22;54940;50.842;4.410;2022-10-10T13:31:12;18.30;99.90
68139;DHT22;54940;50.842;4.410;2022-10-10T13:33:38;18.40;99.90
68139;DHT22;54940;50.842;4.410;2022-10-10T13:36:07;18.50;99.90
68139;DHT22;54940;50.842;4.410;2022-10-10T13:38:40;18.30;99.90
68139;DHT22;54940;50.842;4.410;2022-10-10T13:41:06;18.30;99.90
68139;DHT22;54940;50.842;4.410;2022-10-10T13:43:32;18.20;99.90
68139;DHT22;54940;50.842;4.410;2022-10-10T13:46:00;18.10;99.90
68139;DHT22;54940;50.842;4.410;2022-10-10T13:51:06;18.20;99.90
68139;DHT22;54940;50.842;4.410;2022-10-10T13:53:35;18.20;99.90
68139;DHT22;54940;50.842;4.410;2022-10-10T13:56:26;18.20;99.90
68139;DHT22;54940;50.842;4.410;2022-10-10T14:03:47;18.50;99.90
68139;DHT22;54940;50.842;4.410;2022-10-10T14:06:18;18.50;99.90
68139;DHT22;54940;50.842;4.410;2022-10-10T14:08:44;18.40;99.90
68139;DHT22;54940;50.842;4.410;2022-10-10T14:11:16;18.30;99.90
68139;DHT22;54940;50.842;4.410;2022-10-10T14:13:50;18.20;99.90
68139;DHT22;54940;50.842;4.410;2022-10-10T14:18:43;18.10;99.90
68139;DHT22;54940;50.842;4.410;2022-10-10T14:21:09;18.10;99.90
68139;DHT22;54940;50.842;4.410;2022-10-10T14:23:35;18.10;99.90
68139;DHT22;54940;50.842;4.410;2022-10-10T14:26:02;18.10;99.90
68139;DHT22;54940;50.842;4.410;2022-10-10T14:28:31;18.10;99.90
68139;DHT22;54940;50.842;4.410;2022-10-10T14:30:57;18.10;99.90
68139;DHT22;54940;50.842;4.410;2022-10-10T14:33:25;18.10;99.90
68139;DHT22;54940;50.842;4.410;2022-10-10T14:35:52;18.00;99.90
68139;DHT22;54940;50.842;4.410;2022-10-10T14:38:18;18.00;99.90
68139;DHT22;54940;50.842;4.410;2022-10-10T14:40:46;18.00;99.90
68139;DHT22;54940;50.842;4.410;2022-10-10T14:43:14;17.90;99.90
68139;DHT22;54940;50.842;4.410;2022-10-10T14:45:41;17.80;99.90
68139;DHT22;54940;50.842;4.410;2022-10-10T14:48:09;17.80;99.90
68139;DHT22;54940;50.842;4.410;2022-10-10T14:50:39;17.70;99.90
68139;DHT22;54940;50.842;4.410;2022-10-10T14:53:05;17.60;99.90
68139;DHT22;54940;50.842;4.410;2022-10-10T14:55:31;17.60;99.90
68139;DHT22;54940;50.842;4.410;2022-10-10T14:57:57;17.50;99.90
68139;DHT22;54940;50.842;4.410;2022-10-10T15:00:24;17.40;99.90
68139;DHT22;54940;50.842;4.410;2022-10-10T15:02:50;17.40;99.90
68139;DHT22;54940;50.842;4.410;2022-10-10T15:05:15;17.30;99.90
68139;DHT22;54940;50.842;4.410;2022-10-10T15:07:41;17.10;99.90
68139;DHT22;54940;50.842;4.410;2022-10-10T15:10:09;17.20;99.90
68139;DHT22;54940;50.842;4.410;2022-10-10T15:12:43;17.10;99.90
68139;DHT22;54940;50.842;4.410;2022-10-10T15:15:12;17.00;99.90
68139;DHT22;54940;50.842;4.410;2022-10-10T15:17:39;16.90;99.90
68139;DHT22;54940;50.842;4.410;2022-10-10T15:20:07;16.70;99.90
68139;DHT22;54940;50.842;4.410;2022-10-10T15:22:33;16.50;99.90
68139;DHT22;54940;50.842;4.410;2022-10-10T15:24:59;16.50;99.90
68139;DHT22;54940;50.842;4.410;2022-10-10T15:27:25;16.40;99.90
68139;DHT22;54940;50.842;4.410;2022-10-10T15:29:52;16.40;99.90
68139;DHT22;54940;50.842;4.410;2022-10-10T15:32:18;16.40;99.90
68139;DHT22;54940;50.842;4.410;2022-10-10T15:34:47;16.40;99.90
68139;DHT22;54940;50.842;4.410;2022-10-10T15:37:13;16.50;99.90
68139;DHT22;54940;50.842;4.410;2022-10-10T15:39:39;16.50;99.90
68139;DHT22;54940;50.842;4.410;2022-10-10T15:42:09;16.50;99.90
68139;DHT22;54940;50.842;4.410;2022-10-10T15:44:35;16.40;99.90
68139;DHT22;54940;50.842;4.410;2022-10-10T15:47:01;16.30;99.90
68139;DHT22;54940;50.842;4.410;2022-10-10T15:49:26;16.20;99.90
68139;DHT22;54940;50.842;4.410;2022-10-10T15:51:52;16.20;99.90
68139;DHT22;54940;50.842;4.410;2022-10-10T15:54:17;16.10;99.90
68139;DHT22;54940;50.842;4.410;2022-10-10T15:56:43;16.00;99.90
68139;DHT22;54940;50.842;4.410;2022-10-10T15:59:10;15.80;99.90
68139;DHT22;54940;50.842;4.410;2022-10-10T16:01:37;15.60;99.90
68139;DHT22;54940;50.842;4.410;2022-10-10T16:04:04;15.50;99.90
68139;DHT22;54940;50.842;4.410;2022-10-10T16:06:31;15.40;99.90
68139;DHT22;54940;50.842;4.410;2022-10-10T16:08:57;15.40;99.90
68139;DHT22;54940;50.842;4.410;2022-10-10T16:11:23;15.30;99.90
68139;DHT22;54940;50.842;4.410;2022-10-10T16:13:51;15.20;99.90
68139;DHT22;54940;50.842;4.410;2022-10-10T16:16:18;15.20;99.90
68139;DHT22;54940;50.842;4.410;2022-10-10T16:18:44;15.10;99.90
68139;DHT22;54940;50.842;4.410;2022-10-10T16:21:15;15.10;99.90
68139;DHT22;54940;50.842;4.410;2022-10-10T16:23:45;15.20;99.90
68139;DHT22;54940;50.842;4.410;2022-10-10T16:26:14;15.30;99.90
68139;DHT22;54940;50.842;4.410;2022-10-10T16:28:40;15.10;99.90
68139;DHT22;54940;50.842;4.410;2022-10-10T16:31:08;15.00;99.90
68139;DHT22;54940;50.842;4.410;2022-10-10T16:33:35;15.10;99.90
68139;DHT22;54940;50.842;4.410;2022-10-10T16:36:10;15.10;99.90
68139;DHT22;54940;50.842;4.410;2022-10-10T16:38:36;15.10;99.90
68139;DHT22;54940;50.842;4.410;2022-10-10T16:41:03;15.10;99.90
68139;DHT22;54940;50.842;4.410;2022-10-10T16:43:29;15.10;99.90
68139;DHT22;54940;50.842;4.410;2022-10-10T16:45:59;15.00;99.90
68139;DHT22;54940;50.842;4.410;2022-10-10T16:48:25;15.00;99.90
68139;DHT22;54940;50.842;4.410;2022-10-10T16:50:50;15.00;99.90
68139;DHT22;54940;50.842;4.410;2022-10-10T16:53:16;14.90;99.90
68139;DHT22;54940;50.842;4.410;2022-10-10T16:55:42;14.90;99.90
68139;DHT22;54940;50.842;4.410;2022-10-10T16:58:08;15.00;99.90
68139;DHT22;54940;50.842;4.410;2022-10-10T17:00:34;14.90;99.90
68139;DHT22;54940;50.842;4.410;2022-10-10T17:03:00;14.90;99.90
68139;DHT22;54940;50.842;4.410;2022-10-10T17:05:26;14.90;99.90
68139;DHT22;54940;50.842;4.410;2022-10-10T17:07:52;14.90;99.90
68139;DHT22;54940;50.842;4.410;2022-10-10T17:10:17;15.00;99.90
68139;DHT22;54940;50.842;4.410;2022-10-10T17:12:43;15.00;99.90
68139;DHT22;54940;50.842;4.410;2022-10-10T17:15:08;14.90;99.90
68139;DHT22;54940;50.842;4.410;2022-10-10T17:17:35;14.90;99.90
68139;DHT22;54940;50.842;4.410;2022-10-10T17:20:01;14.80;99.90
68139;DHT22;54940;50.842;4.410;2022-10-10T17:22:27;14.80;99.90
68139;DHT22;54940;50.842;4.410;2022-10-10T17:24:53;14.80;99.90
68139;DHT22;54940;50.842;4.410;2022-10-10T17:27:19;14.80;99.90